Time;durP1;ratioP1;P1;durP2;ratioP2;P2;SDS_P1;SDS_P2;PMS_P1;PMS_P2;Temp;Humidity;BMP_temperature;BMP_pressure;BME280_temperature;BME280_humidity;BME280_pressure;Samples;Min_cycle;Max_cycle;Signal;HPM_P1;HPM_P2
2022/07/21 00:01:09;;;;;;;6.37;3.70;;;23.20;66.80;;;;;;6277495;28;20406;-64
2022/07/21 00:04:13;;;;;;;4.07;3.67;;;23.20;66.80;;;;;;6277348;28;20199;-64
2022/07/21 00:07:16;;;;;;;5.00;3.13;;;23.20;67.00;;;;;;6276911;28;20234;-64
2022/07/21 00:10:20;;;;;;;4.20;3.90;;;23.20;67.50;;;;;;6276377;28;20676;-64
2022/07/21 00:13:25;;;;;;;4.33;3.93;;;23.10;67.70;;;;;;6276659;28;20286;-64
2022/07/21 00:16:28;;;;;;;5.40;4.93;;;23.10;67.90;;;;;;6276439;28;20242;-64
2022/07/21 00:19:31;;;;;;;4.37;3.77;;;23.10;68.20;;;;;;6276313;28;20227;-64
2022/07/21 00:22:35;;;;;;;4.20;3.90;;;23.00;68.20;;;;;;6276278;28;20234;-64
2022/07/21 00:25:38;;;;;;;6.30;3.90;;;22.90;68.50;;;;;;6276633;28;20234;-64
2022/07/21 00:28:42;;;;;;;3.57;3.27;;;22.90;68.80;;;;;;6276336;28;20231;-64
2022/07/21 00:31:46;;;;;;;4.03;3.70;;;22.80;69.20;;;;;;6276534;28;20235;-64
2022/07/21 00:34:49;;;;;;;4.90;4.30;;;22.70;69.10;;;;;;6275941;28;20549;-64
2022/07/21 00:37:52;;;;;;;3.70;3.23;;;22.80;69.20;;;;;;6276187;28;20234;-64
2022/07/21 00:40:55;;;;;;;4.10;3.30;;;22.80;69.50;;;;;;6275653;28;20228;-64
2022/07/21 00:43:59;;;;;;;5.87;3.30;;;22.80;69.50;;;;;;6275861;28;20238;-64
2022/07/21 00:47:03;;;;;;;4.57;3.40;;;22.70;69.50;;;;;;6274996;28;20566;-64
2022/07/21 00:50:09;;;;;;;4.57;3.63;;;22.70;69.90;;;;;;6275281;28;20235;-64
2022/07/21 00:53:13;;;;;;;4.10;3.80;;;22.60;69.90;;;;;;6275429;28;20237;-64
2022/07/21 00:56:17;;;;;;;4.30;3.43;;;22.70;70.00;;;;;;6275359;28;20240;-64
2022/07/21 00:59:21;;;;;;;3.50;3.20;;;22.60;70.20;;;;;;6275029;28;20235;-64
2022/07/21 01:02:26;;;;;;;3.60;3.40;;;22.60;70.50;;;;;;6274976;28;20236;-64
2022/07/21 01:05:29;;;;;;;4.20;3.90;;;22.60;70.80;;;;;;6274928;28;20230;-64
2022/07/21 01:08:33;;;;;;;4.40;3.67;;;22.60;71.10;;;;;;6274660;28;20704;-64
2022/07/21 01:11:36;;;;;;;4.40;4.00;;;22.60;71.50;;;;;;6275087;28;20257;-64
2022/07/21 01:14:41;;;;;;;3.73;3.47;;;22.50;71.50;;;;;;6275140;28;20235;-64
2022/07/21 01:17:45;;;;;;;3.77;3.47;;;22.50;71.60;;;;;;6274717;28;20271;-64
2022/07/21 01:20:54;;;;;;;3.83;3.43;;;22.50;71.60;;;;;;6274815;28;20246;-64
2022/07/21 01:23:59;;;;;;;3.80;3.37;;;22.40;71.70;;;;;;6275090;28;20242;-64
2022/07/21 01:27:02;;;;;;;3.70;3.40;;;22.40;72.20;;;;;;6275240;28;20238;-64
2022/07/21 01:30:08;;;;;;;5.33;4.03;;;22.40;72.20;;;;;;6265414;28;20242;-64
2022/07/21 01:33:12;;;;;;;3.90;3.60;;;22.30;72.50;;;;;;6275185;28;20242;-64
2022/07/21 01:36:15;;;;;;;5.67;4.33;;;22.20;72.40;;;;;;6275111;28;20242;-64
2022/07/21 01:42:52;;;;;;;3.63;3.33;;;22.10;72.80;;;;;;6198745;28;20237;-64
2022/07/21 01:45:55;;;;;;;4.10;3.80;;;22.10;73.00;;;;;;6274469;28;20238;-64
2022/07/21 01:48:59;;;;;;;3.60;3.33;;;22.00;73.10;;;;;;6274467;28;20593;-64
2022/07/21 01:52:02;;;;;;;3.93;3.63;;;22.00;73.40;;;;;;6274533;28;20818;-64
2022/07/21 01:55:07;;;;;;;5.10;3.43;;;22.00;73.50;;;;;;6273979;28;20657;-64
2022/07/21 01:58:11;;;;;;;5.23;3.80;;;22.00;73.60;;;;;;6274814;28;20195;-64
2022/07/21 02:01:16;;;;;;;4.57;4.17;;;22.00;73.80;;;;;;6279853;28;20350;-64
2022/07/21 02:04:19;;;;;;;4.03;3.73;;;22.00;74.00;;;;;;6279743;28;20548;-64
2022/07/21 02:07:22;;;;;;;5.30;4.00;;;21.90;74.00;;;;;;6279365;28;20560;-64
2022/07/21 02:10:27;;;;;;;3.87;3.60;;;21.90;74.30;;;;;;6279666;28;20242;-64
2022/07/21 02:13:30;;;;;;;3.60;3.30;;;21.80;74.60;;;;;;6279392;28;20238;-65
2022/07/21 02:16:33;;;;;;;3.47;3.17;;;21.70;75.20;;;;;;6279702;28;20232;-64
2022/07/21 02:19:37;;;;;;;4.37;4.00;;;21.60;76.10;;;;;;6278880;28;20242;-64
2022/07/21 02:22:40;;;;;;;3.87;3.57;;;21.50;76.20;;;;;;6279439;28;20242;-64
2022/07/21 02:25:45;;;;;;;4.60;3.57;;;21.50;76.50;;;;;;6279295;28;20238;-64
2022/07/21 02:28:48;;;;;;;4.80;4.20;;;21.60;76.20;;;;;;6279049;28;20224;-65
2022/07/21 02:31:52;;;;;;;3.17;2.87;;;21.60;76.20;;;;;;6274585;28;20223;-65
2022/07/21 02:34:55;;;;;;;4.23;3.83;;;21.50;76.10;;;;;;6279255;28;20228;-65
2022/07/21 02:37:59;;;;;;;3.37;3.07;;;21.50;76.40;;;;;;6279102;28;20553;-65
2022/07/21 02:41:04;;;;;;;4.80;3.57;;;21.50;76.60;;;;;;6279062;28;20234;-65
2022/07/21 02:44:07;;;;;;;4.40;4.00;;;21.50;76.20;;;;;;6279464;28;20269;-65
2022/07/21 02:47:10;;;;;;;5.20;4.07;;;21.50;76.20;;;;;;6279419;28;20231;-65
2022/07/21 02:50:13;;;;;;;4.33;3.70;;;21.50;76.40;;;;;;6278833;28;20579;-65
2022/07/21 02:53:19;;;;;;;3.90;3.60;;;21.50;76.30;;;;;;6279040;28;20566;-65
2022/07/21 02:56:23;;;;;;;3.80;3.40;;;21.40;76.50;;;;;;6279408;28;20358;-65
2022/07/21 02:59:26;;;;;;;4.43;3.53;;;21.40;76.90;;;;;;6278818;28;20236;-65
2022/07/21 03:02:30;;;;;;;3.60;3.30;;;21.40;77.10;;;;;;6279078;28;20243;-66
2022/07/21 03:05:33;;;;;;;3.83;3.53;;;21.30;77.50;;;;;;6278751;28;20232;-65
2022/07/21 03:08:37;;;;;;;3.37;3.07;;;21.30;77.90;;;;;;6278541;28;20236;-65
2022/07/21 03:11:41;;;;;;;3.63;3.43;;;21.40;77.70;;;;;;6278114;28;20232;-65
2022/07/21 03:14:44;;;;;;;4.07;3.60;;;21.30;77.80;;;;;;6279248;28;20227;-64
2022/07/21 03:17:47;;;;;;;3.90;3.60;;;21.30;78.00;;;;;;6279123;28;20235;-64
2022/07/21 03:20:51;;;;;;;4.40;3.50;;;21.30;78.00;;;;;;6278641;28;20239;-64
2022/07/21 03:23:54;;;;;;;3.73;3.43;;;21.20;77.90;;;;;;6278507;28;20224;-64
2022/07/21 03:26:58;;;;;;;3.87;3.47;;;21.20;78.20;;;;;;6277875;28;20566;-65
2022/07/21 03:30:10;;;;;;;5.43;3.40;;;21.20;78.50;;;;;;6277762;28;20564;-65
2022/07/21 03:33:13;;;;;;;4.30;3.67;;;21.10;78.60;;;;;;6277619;28;20228;-65
2022/07/21 03:36:16;;;;;;;4.20;3.77;;;21.10;78.90;;;;;;6278008;28;20548;-66
2022/07/21 03:39:19;;;;;;;4.60;3.77;;;21.10;78.80;;;;;;6277729;28;20246;-65
2022/07/21 03:42:24;;;;;;;4.67;4.23;;;21.10;78.70;;;;;;6277739;28;20687;-65
2022/07/21 03:45:29;;;;;;;5.27;4.50;;;21.10;78.60;;;;;;6277012;28;20231;-65
2022/07/21 03:48:33;;;;;;;5.73;4.43;;;21.10;78.50;;;;;;6277802;28;20232;-65
2022/07/21 03:51:36;;;;;;;4.60;4.30;;;21.20;78.80;;;;;;6276820;28;20318;-65
2022/07/21 03:54:39;;;;;;;4.10;3.77;;;21.20;78.50;;;;;;6277316;28;20250;-65
2022/07/21 03:57:46;;;;;;;4.10;3.80;;;21.20;78.60;;;;;;6276746;28;20681;-64
2022/07/21 04:00:49;;;;;;;5.10;3.80;;;21.20;78.70;;;;;;6276725;28;20250;-64
2022/07/21 04:03:52;;;;;;;4.93;4.43;;;21.20;78.60;;;;;;6276572;28;20231;-64
2022/07/21 04:06:56;;;;;;;3.80;3.50;;;21.30;78.60;;;;;;6277055;28;20334;-65
2022/07/21 04:09:59;;;;;;;4.63;4.10;;;21.30;78.60;;;;;;6276910;28;20589;-65
2022/07/21 04:13:06;;;;;;;3.10;2.80;;;21.30;78.60;;;;;;6276548;28;20223;-65
2022/07/21 04:16:09;;;;;;;5.50;4.20;;;21.30;78.60;;;;;;6276291;28;20619;-65
2022/07/21 04:19:12;;;;;;;8.43;4.07;;;21.40;78.70;;;;;;6276363;28;20320;-65
2022/07/21 04:22:15;;;;;;;5.03;4.60;;;21.40;78.70;;;;;;6275396;28;20353;-65
2022/07/21 04:25:20;;;;;;;4.17;3.83;;;21.30;78.80;;;;;;6275701;28;20235;-66
2022/07/21 04:28:25;;;;;;;4.40;4.03;;;21.40;78.60;;;;;;6276001;28;20242;-65
2022/07/21 04:31:28;;;;;;;3.93;3.57;;;21.40;78.70;;;;;;6275756;28;20237;-65
2022/07/21 04:34:31;;;;;;;5.30;4.57;;;21.50;78.30;;;;;;6276180;28;20239;-65
2022/07/21 04:37:35;;;;;;;4.63;4.23;;;21.60;78.40;;;;;;6271057;28;20227;-65
2022/07/21 04:40:38;;;;;;;4.80;4.40;;;21.70;78.80;;;;;;6275977;28;20231;-64
2022/07/21 04:43:42;;;;;;;4.93;4.50;;;21.80;78.90;;;;;;6275267;28;20296;-64
2022/07/21 04:46:46;;;;;;;4.40;4.10;;;21.90;78.30;;;;;;6275979;28;20227;-64
2022/07/21 04:49:49;;;;;;;4.93;4.53;;;22.10;78.00;;;;;;6275325;28;20318;-65
2022/07/21 04:52:53;;;;;;;6.83;4.23;;;22.20;77.20;;;;;;6275382;28;20239;-65
2022/07/21 04:55:56;;;;;;;5.00;4.57;;;22.30;77.00;;;;;;6275574;28;20223;-65
2022/07/21 04:59:01;;;;;;;5.57;5.17;;;22.40;77.00;;;;;;6275856;28;20249;-65
2022/07/21 05:02:04;;;;;;;5.33;4.70;;;22.50;76.00;;;;;;6275586;28;20238;-64
2022/07/21 05:05:09;;;;;;;4.30;4.00;;;22.70;75.80;;;;;;6275083;28;20239;-64
2022/07/21 05:08:12;;;;;;;5.33;4.40;;;22.80;75.30;;;;;;6276283;28;20243;-65
2022/07/21 05:11:15;;;;;;;5.13;4.73;;;22.90;75.20;;;;;;6275514;28;20220;-64
2022/07/21 05:14:20;;;;;;;5.80;5.10;;;23.10;74.60;;;;;;6257370;28;20232;-65
2022/07/21 05:17:23;;;;;;;5.07;4.67;;;23.30;75.20;;;;;;6250575;28;20835;-65
2022/07/21 05:20:26;;;;;;;5.50;5.00;;;23.50;74.40;;;;;;6250229;28;20243;-65
2022/07/21 05:23:29;;;;;;;5.40;5.00;;;23.70;74.40;;;;;;6250616;28;20685;-65
2022/07/21 05:26:33;;;;;;;9.10;5.93;;;23.90;73.80;;;;;;6250329;28;20240;-65
2022/07/21 05:29:37;;;;;;;6.10;5.60;;;24.00;73.50;;;;;;6250332;28;20243;-66
2022/07/21 05:32:40;;;;;;;6.57;5.90;;;24.10;73.00;;;;;;6250043;28;20247;-64
2022/07/21 05:35:50;;;;;;;6.40;5.30;;;24.20;72.60;;;;;;6250465;28;20318;-65
2022/07/21 05:38:53;;;;;;;6.20;5.60;;;24.30;71.60;;;;;;6250562;28;20227;-67
2022/07/21 05:41:56;;;;;;;6.80;5.63;;;24.50;70.80;;;;;;6246089;28;20238;-65
2022/07/21 05:45:01;;;;;;;8.40;6.37;;;24.60;71.10;;;;;;6249693;28;20244;-68
2022/07/21 05:48:04;;;;;;;6.90;6.27;;;24.80;70.30;;;;;;6259943;28;20571;-65
2022/07/21 05:51:08;;;;;;;8.40;6.33;;;25.00;69.80;;;;;;6275515;28;20239;-66
2022/07/21 05:54:17;;;;;;;6.93;6.23;;;25.10;68.80;;;;;;6263393;28;20227;-66
2022/07/21 05:57:21;;;;;;;6.63;5.77;;;25.20;69.30;;;;;;6274156;28;20227;-66
2022/07/21 06:00:25;;;;;;;7.90;6.47;;;25.30;67.80;;;;;;6274190;28;20570;-66
2022/07/21 06:03:28;;;;;;;6.17;5.57;;;25.50;67.60;;;;;;6274322;28;20238;-66
2022/07/21 06:06:32;;;;;;;6.20;5.70;;;25.80;66.50;;;;;;6274211;28;20308;-66
2022/07/21 06:09:36;;;;;;;6.67;6.07;;;26.10;65.80;;;;;;6273798;28;20712;-66
2022/07/21 06:12:39;;;;;;;7.40;5.57;;;26.40;65.70;;;;;;6274164;28;20540;-66
2022/07/21 06:15:43;;;;;;;7.87;5.40;;;27.00;63.60;;;;;;6274467;28;20547;-66
2022/07/21 06:18:46;;;;;;;7.33;6.20;;;27.40;62.80;;;;;;6274082;28;20235;-66
2022/07/21 06:21:49;;;;;;;6.80;5.70;;;27.80;61.00;;;;;;6274300;28;20548;-66
2022/07/21 06:24:53;;;;;;;6.60;6.00;;;28.30;59.90;;;;;;6274194;28;20227;-66
2022/07/21 06:27:56;;;;;;;6.63;6.03;;;28.80;58.40;;;;;;6273779;28;20550;-66
2022/07/21 06:31:00;;;;;;;6.73;6.03;;;28.80;57.40;;;;;;6274178;28;20233;-66
2022/07/21 06:34:04;;;;;;;6.07;5.57;;;29.20;57.00;;;;;;6274139;28;20241;-66
2022/07/21 06:37:07;;;;;;;6.20;5.60;;;29.80;56.30;;;;;;6274032;28;20223;-66
2022/07/21 06:40:11;;;;;;;6.77;5.90;;;30.40;54.90;;;;;;6274342;28;20230;-66
2022/07/21 06:43:14;;;;;;;6.03;5.63;;;31.00;53.90;;;;;;6259634;28;20649;-66
2022/07/21 06:46:31;;;;;;;6.15;5.65;;;31.60;51.70;;;;;;6277435;28;20314;-66
2022/07/21 06:49:34;;;;;;;5.97;5.47;;;32.10;51.20;;;;;;6278124;28;20436;-67
2022/07/21 06:52:37;;;;;;;7.72;5.43;;;32.70;49.80;;;;;;6278327;28;20227;-67
2022/07/21 06:55:41;;;;;;;5.05;4.60;;;33.30;48.50;;;;;;6278555;28;20250;-67
2022/07/21 06:58:44;;;;;;;6.38;5.35;;;33.90;47.50;;;;;;6278030;28;20223;-67
2022/07/21 07:01:55;;;;;;;5.43;4.95;;;34.50;45.80;;;;;;6278190;28;20305;-66
2022/07/21 07:04:58;;;;;;;5.45;4.97;;;35.00;44.10;;;;;;6269454;28;20231;-66
2022/07/21 07:08:10;;;;;;;7.45;5.18;;;35.60;42.70;;;;;;6254868;28;20239;-65
2022/07/21 07:11:14;;;;;;;6.15;5.55;;;36.30;42.00;;;;;;6266059;28;20255;-65
2022/07/21 07:14:17;;;;;;;5.57;5.03;;;37.10;40.60;;;;;;6267731;28;20219;-65
2022/07/21 07:17:22;;;;;;;5.50;5.00;;;37.80;39.00;;;;;;6265075;28;20223;-66
2022/07/21 07:20:25;;;;;;;6.78;4.88;;;38.20;37.60;;;;;;6258559;28;20232;-66
2022/07/21 07:23:29;;;;;;;5.35;4.85;;;38.70;36.40;;;;;;6264644;28;20576;-66
2022/07/21 07:26:32;;;;;;;4.82;4.43;;;39.40;35.80;;;;;;6264519;28;20223;-66
2022/07/21 07:29:35;;;;;;;5.03;4.63;;;40.00;34.80;;;;;;6260281;28;20232;-64
2022/07/21 07:32:40;;;;;;;9.30;5.22;;;40.70;33.70;;;;;;6255102;28;20245;-65
2022/07/21 07:35:44;;;;;;;5.97;4.85;;;41.50;32.50;;;;;;6265521;28;20223;-64
2022/07/21 07:38:47;;;;;;;4.47;4.07;;;41.80;30.90;;;;;;6260311;28;20238;-64
2022/07/21 07:41:51;;;;;;;5.68;5.15;;;42.00;30.90;;;;;;6271621;28;20365;-64
2022/07/21 07:44:54;;;;;;;5.65;4.75;;;42.50;30.20;;;;;;6259164;28;20219;-64
2022/07/21 07:47:58;;;;;;;4.72;4.32;;;42.60;30.00;;;;;;6262586;28;20233;-64
2022/07/21 07:51:02;;;;;;;5.30;4.75;;;43.60;29.50;;;;;;6261186;28;20220;-63
2022/07/21 07:54:05;;;;;;;4.72;4.35;;;44.20;28.70;;;;;;6256172;28;20238;-63
2022/07/21 07:57:08;;;;;;;4.60;4.03;;;44.60;28.00;;;;;;6258761;28;20238;-63
2022/07/21 08:00:14;;;;;;;6.60;4.80;;;45.00;27.80;;;;;;6267269;28;20223;-63
2022/07/21 08:03:39;;;;;;;4.65;4.20;;;45.60;27.40;;;;;;6252198;28;20232;-63
2022/07/21 08:06:42;;;;;;;4.32;3.88;;;45.50;26.70;;;;;;6263761;28;20224;-63
2022/07/21 08:09:45;;;;;;;4.72;4.07;;;45.50;26.80;;;;;;6261354;28;20544;-63
2022/07/21 08:12:48;;;;;;;5.40;4.90;;;45.20;26.40;;;;;;6264109;28;20219;-63
2022/07/21 08:15:52;;;;;;;4.60;4.20;;;44.80;26.90;;;;;;6264972;28;20237;-68
2022/07/21 08:18:56;;;;;;;6.45;4.75;;;44.20;27.10;;;;;;6250872;28;20734;-68
2022/07/21 08:22:01;;;;;;;6.72;4.72;;;43.10;27.90;;;;;;6262735;28;20237;-68
2022/07/21 08:25:15;;;;;;;4.90;4.45;;;41.90;28.90;;;;;;6261853;28;20222;-68
2022/07/21 08:28:18;;;;;;;4.78;4.20;;;40.90;29.60;;;;;;6252519;28;20670;-69
2022/07/21 08:31:22;;;;;;;5.18;4.60;;;40.30;30.00;;;;;;6260809;28;20662;-68
2022/07/21 08:34:27;;;;;;;6.25;4.90;;;39.70;30.70;;;;;;6249542;28;20239;-68
2022/07/21 08:37:30;;;;;;;4.90;4.50;;;38.70;31.50;;;;;;6249680;28;20307;-68
2022/07/21 08:40:36;;;;;;;5.97;4.43;;;38.10;32.20;;;;;;6249518;28;20258;-68
2022/07/21 08:43:39;;;;;;;5.10;4.60;;;37.80;32.50;;;;;;6249989;28;20632;-68
2022/07/21 08:46:43;;;;;;;4.90;4.50;;;37.40;32.70;;;;;;6250016;28;20227;-68
2022/07/21 08:49:49;;;;;;;4.90;4.13;;;37.00;32.90;;;;;;6250174;28;20228;-68
2022/07/21 08:52:52;;;;;;;4.93;4.53;;;36.70;33.90;;;;;;6251339;28;20228;-68
2022/07/21 08:56:02;;;;;;;5.78;5.28;;;36.30;33.10;;;;;;6251092;28;20688;-68
2022/07/21 08:59:05;;;;;;;6.15;5.65;;;36.10;35.80;;;;;;6250806;28;20540;-68
2022/07/21 09:02:27;;;;;;;7.18;6.45;;;35.90;37.70;;;;;;6251231;28;20231;-68
2022/07/21 09:05:32;;;;;;;7.05;5.85;;;35.60;38.50;;;;;;6251259;28;20235;-67
2022/07/21 09:08:37;;;;;;;7.75;5.13;;;35.50;38.80;;;;;;6250725;28;20234;-67
2022/07/21 09:11:45;;;;;;;6.63;6.13;;;35.10;38.50;;;;;;6250857;28;20242;-67
2022/07/21 09:14:48;;;;;;;7.60;5.03;;;34.90;39.10;;;;;;6250256;28;20311;-67
2022/07/21 09:18:07;;;;;;;5.38;4.38;;;35.00;38.30;;;;;;6250210;28;20227;-67
2022/07/21 09:21:17;;;;;;;4.93;4.53;;;35.00;37.10;;;;;;6250135;28;20310;-67
2022/07/21 09:24:25;;;;;;;5.85;4.35;;;34.50;36.70;;;;;;6250641;28;20242;-67
2022/07/21 09:27:29;;;;;;;4.57;4.05;;;34.50;37.00;;;;;;6249553;28;20231;-68
2022/07/21 09:30:48;;;;;;;4.57;4.13;;;34.60;36.50;;;;;;6251387;28;20596;-68
2022/07/21 09:33:51;;;;;;;5.22;4.45;;;34.50;36.90;;;;;;6250999;28;20224;-67
2022/07/21 09:36:59;;;;;;;5.03;4.63;;;34.50;37.50;;;;;;6250586;28;20231;-67
2022/07/21 09:40:06;;;;;;;4.45;4.05;;;34.50;37.20;;;;;;6250999;28;20242;-69
2022/07/21 09:43:09;;;;;;;6.80;4.82;;;34.60;36.30;;;;;;6250694;28;20220;-69
2022/07/21 09:46:16;;;;;;;5.05;4.13;;;34.50;36.40;;;;;;6253754;28;20636;-69
2022/07/21 09:49:32;;;;;;;4.28;3.88;;;34.70;37.00;;;;;;6249489;28;20227;-69
2022/07/21 09:52:58;;;;;;;4.72;4.25;;;34.70;36.70;;;;;;6238714;28;20634;-68
2022/07/21 09:56:01;;;;;;;3.83;3.40;;;34.90;36.70;;;;;;6248183;28;20686;-68
2022/07/21 09:59:06;;;;;;;5.40;4.60;;;34.80;36.40;;;;;;6248301;28;20676;-68
2022/07/21 10:02:15;;;;;;;4.32;3.88;;;34.70;37.20;;;;;;6247784;28;20240;-67
2022/07/21 10:05:20;;;;;;;4.68;4.25;;;34.70;37.80;;;;;;6247746;28;20528;-67
2022/07/21 10:08:34;;;;;;;5.53;4.70;;;34.80;38.00;;;;;;6247669;28;20735;-66
2022/07/21 10:11:41;;;;;;;6.00;4.10;;;34.90;38.00;;;;;;6247845;28;20231;-68
2022/07/21 10:14:46;;;;;;;5.80;4.97;;;35.00;38.20;;;;;;6247393;28;20232;-68
2022/07/21 10:17:54;;;;;;;5.88;5.25;;;35.10;38.30;;;;;;6248730;28;20238;-68
2022/07/21 10:21:02;;;;;;;4.93;4.53;;;35.20;38.40;;;;;;6252541;28;20234;-68
2022/07/21 10:24:11;;;;;;;6.05;4.75;;;35.30;38.30;;;;;;6254171;28;20560;-68
2022/07/21 10:27:15;;;;;;;4.88;4.40;;;35.30;38.30;;;;;;6253497;28;20650;-68
2022/07/21 10:30:38;;;;;;;5.07;4.68;;;35.10;38.60;;;;;;6253226;28;20670;-68
2022/07/21 10:33:57;;;;;;;5.03;4.53;;;35.10;39.70;;;;;;6253136;28;20665;-68
2022/07/21 10:37:00;;;;;;;6.90;4.40;;;35.10;39.00;;;;;;6253930;28;20354;-68
2022/07/21 10:40:06;;;;;;;5.85;4.38;;;35.10;39.30;;;;;;6253694;28;20258;-67
2022/07/21 10:43:40;;;;;;;4.50;4.10;;;35.20;39.40;;;;;;6253682;28;20323;-67
2022/07/21 10:47:00;;;;;;;5.20;4.55;;;35.30;39.20;;;;;;6211531;28;20223;-67
2022/07/21 10:50:07;;;;;;;4.55;4.15;;;35.30;39.10;;;;;;6253682;28;20246;-67
2022/07/21 10:53:14;;;;;;;4.85;4.45;;;35.20;38.80;;;;;;6253607;28;20235;-68
2022/07/21 10:56:31;;;;;;;5.40;5.00;;;35.20;39.00;;;;;;6249275;28;20223;-68
2022/07/21 11:00:07;;;;;;;5.55;4.10;;;35.40;39.30;;;;;;6253522;28;20236;-67
2022/07/21 11:03:16;;;;;;;5.65;5.15;;;35.40;38.60;;;;;;6228868;28;20359;-67
2022/07/21 11:06:23;;;;;;;6.70;4.47;;;35.30;38.50;;;;;;6228957;28;20697;-67
2022/07/21 11:09:33;;;;;;;5.60;4.28;;;35.30;38.70;;;;;;6228577;28;20241;-67
2022/07/21 11:12:58;;;;;;;6.32;4.53;;;35.40;38.40;;;;;;6228481;28;20224;-68
2022/07/21 11:16:13;;;;;;;4.10;3.70;;;35.30;37.90;;;;;;6228892;28;20656;-68
2022/07/21 11:19:28;;;;;;;6.80;4.40;;;35.20;38.20;;;;;;6228445;28;20240;-68
2022/07/21 11:22:32;;;;;;;4.28;3.95;;;35.20;38.00;;;;;;6228532;28;20225;-68
2022/07/21 11:25:35;;;;;;;6.07;4.60;;;35.10;38.50;;;;;;6227871;28;20224;-68
2022/07/21 11:28:40;;;;;;;5.45;4.43;;;34.70;38.40;;;;;;6242261;28;20245;-67
2022/07/21 11:31:47;;;;;;;5.10;4.55;;;34.60;38.70;;;;;;6252334;28;20234;-67
2022/07/21 11:34:52;;;;;;;4.38;3.90;;;34.80;38.20;;;;;;6252045;28;20224;-68
2022/07/21 11:37:56;;;;;;;4.88;3.92;;;34.90;38.10;;;;;;6272850;28;20227;-67
2022/07/21 11:41:14;;;;;;;4.13;3.83;;;34.90;37.70;;;;;;6263864;28;20691;-67
2022/07/21 11:44:25;;;;;;;7.28;4.15;;;34.90;37.60;;;;;;6252345;28;20224;-69
2022/07/21 11:47:28;;;;;;;4.53;4.10;;;34.50;38.30;;;;;;6251948;28;20224;-67
2022/07/21 11:50:32;;;;;;;4.20;3.90;;;34.30;37.90;;;;;;6251556;28;20580;-66
2022/07/21 11:53:36;;;;;;;4.30;4.00;;;34.30;38.50;;;;;;6251337;28;20240;-68
2022/07/21 11:56:40;;;;;;;4.47;3.70;;;34.60;37.80;;;;;;6251648;28;20228;-68
2022/07/21 11:59:46;;;;;;;5.07;4.68;;;34.70;37.40;;;;;;6248939;28;20232;-68
2022/07/21 12:02:49;;;;;;;4.40;4.00;;;34.90;37.30;;;;;;6252705;28;20362;-68
2022/07/21 12:05:52;;;;;;;4.57;3.70;;;34.90;37.10;;;;;;6252271;28;20240;-68
2022/07/21 12:08:56;;;;;;;3.97;3.67;;;35.00;36.70;;;;;;6252091;28;20236;-67
2022/07/21 12:11:59;;;;;;;3.97;3.72;;;35.00;37.10;;;;;;6252123;28;20322;-68
2022/07/21 12:15:15;;;;;;;4.47;4.07;;;34.80;37.00;;;;;;6252577;28;20230;-68
2022/07/21 12:18:23;;;;;;;4.78;4.25;;;34.80;37.20;;;;;;6252266;28;20236;-67
2022/07/21 12:21:27;;;;;;;4.40;4.10;;;34.80;36.90;;;;;;6252157;28;20290;-67
2022/07/21 12:24:51;;;;;;;4.50;4.20;;;34.70;37.20;;;;;;6251780;28;20238;-67
2022/07/21 12:27:56;;;;;;;3.85;3.60;;;34.80;37.00;;;;;;6251019;28;20228;-68
2022/07/21 12:31:12;;;;;;;4.03;3.60;;;34.80;36.60;;;;;;6252008;28;20223;-67
2022/07/21 12:34:18;;;;;;;4.32;3.92;;;34.80;36.90;;;;;;6251752;28;20230;-68
2022/07/21 12:37:55;;;;;;;4.55;3.85;;;34.50;36.60;;;;;;6251524;28;20564;-68
2022/07/21 12:41:01;;;;;;;4.20;3.80;;;34.40;37.10;;;;;;6249447;28;20266;-68
2022/07/21 12:44:26;;;;;;;4.78;3.90;;;34.50;37.20;;;;;;6246931;28;20250;-68
2022/07/21 12:47:31;;;;;;;3.88;3.58;;;34.60;36.90;;;;;;6252968;28;20247;-68
2022/07/21 12:50:38;;;;;;;4.63;3.92;;;34.70;36.70;;;;;;6275504;28;20417;-68
2022/07/21 12:53:47;;;;;;;4.80;3.80;;;34.80;36.70;;;;;;6274471;28;20334;-69
2022/07/21 12:56:51;;;;;;;4.30;3.90;;;34.80;36.90;;;;;;6276888;28;20224;-68
2022/07/21 12:59:59;;;;;;;4.85;4.50;;;34.90;36.40;;;;;;6269805;28;20982;-67
2022/07/21 13:03:04;;;;;;;6.03;4.18;;;34.90;36.20;;;;;;6226795;28;20315;-68
2022/07/21 13:06:09;;;;;;;4.65;4.25;;;34.90;36.30;;;;;;6222084;28;20315;-69
2022/07/21 13:09:13;;;;;;;3.95;3.63;;;34.80;36.30;;;;;;6228579;28;20481;-70
2022/07/21 13:12:21;;;;;;;4.72;4.38;;;34.80;36.60;;;;;;6265277;28;20223;-69
2022/07/21 13:15:25;;;;;;;6.32;4.35;;;34.70;36.70;;;;;;6280066;28;20234;-67
2022/07/21 13:18:30;;;;;;;5.57;4.28;;;34.90;36.60;;;;;;6257351;28;20370;-66
2022/07/21 13:21:36;;;;;;;4.32;3.97;;;35.00;36.20;;;;;;6251844;28;20242;-68
2022/07/21 13:24:40;;;;;;;4.78;4.38;;;35.00;36.00;;;;;;6251136;28;20263;-69
2022/07/21 13:27:44;;;;;;;4.88;4.47;;;35.00;36.00;;;;;;6255795;28;20224;-66
2022/07/21 13:30:50;;;;;;;4.32;3.90;;;35.00;36.00;;;;;;6259134;28;20573;-68
2022/07/21 13:33:55;;;;;;;3.85;3.65;;;35.00;35.50;;;;;;6252119;28;20240;-68
2022/07/21 13:36:59;;;;;;;4.80;4.10;;;34.90;36.00;;;;;;6251911;28;20677;-67
2022/07/21 13:40:04;;;;;;;4.32;3.92;;;34.50;36.20;;;;;;6254755;28;20707;-68
2022/07/21 13:43:27;;;;;;;5.15;4.75;;;34.40;36.70;;;;;;6252992;28;20230;-69
2022/07/21 13:46:40;;;;;;;4.80;3.75;;;34.40;36.50;;;;;;6253593;28;20236;-68
2022/07/21 13:49:45;;;;;;;4.65;4.25;;;34.40;36.60;;;;;;6256647;28;20733;-66
2022/07/21 13:52:49;;;;;;;5.40;3.97;;;34.40;36.90;;;;;;6251388;28;20243;-69
2022/07/21 13:55:53;;;;;;;4.75;4.32;;;34.40;37.30;;;;;;6257762;28;20223;-70
2022/07/21 13:58:57;;;;;;;4.53;4.15;;;34.50;36.90;;;;;;6255941;28;20236;-68
2022/07/21 14:02:00;;;;;;;3.53;3.33;;;34.40;37.00;;;;;;6256362;28;20729;-67
2022/07/21 14:05:06;;;;;;;7.35;4.25;;;34.30;36.90;;;;;;6256074;28;20235;-67
2022/07/21 14:08:10;;;;;;;4.30;4.00;;;34.30;37.20;;;;;;6252324;28;20515;-67
2022/07/21 14:11:14;;;;;;;6.05;4.63;;;34.30;36.90;;;;;;6257835;28;20219;-68
2022/07/21 14:14:21;;;;;;;4.70;4.25;;;34.30;37.20;;;;;;6257345;28;20330;-68
2022/07/21 14:17:24;;;;;;;4.55;3.92;;;34.30;37.10;;;;;;6248703;28;20231;-68
2022/07/21 14:20:29;;;;;;;5.15;4.07;;;34.20;37.30;;;;;;6255258;28;20239;-67
2022/07/21 14:23:32;;;;;;;5.38;4.40;;;34.10;37.00;;;;;;6249335;28;20753;-68
2022/07/21 14:26:37;;;;;;;5.00;3.33;;;34.10;37.00;;;;;;6231829;28;20702;-67
2022/07/21 14:29:40;;;;;;;3.80;3.50;;;34.20;36.90;;;;;;6275138;28;20257;-69
2022/07/21 14:32:44;;;;;;;3.92;3.72;;;34.20;36.90;;;;;;6278361;28;20231;-67
2022/07/21 14:35:49;;;;;;;4.35;3.72;;;34.30;36.70;;;;;;6254582;28;20239;-68
2022/07/21 14:38:54;;;;;;;5.50;3.85;;;34.20;37.00;;;;;;6254605;28;20231;-66
2022/07/21 14:41:58;;;;;;;4.38;3.97;;;34.20;36.80;;;;;;6254376;28;20529;-65
2022/07/21 14:45:02;;;;;;;3.70;3.40;;;34.10;37.10;;;;;;6254325;28;20242;-66
2022/07/21 14:48:13;;;;;;;3.92;3.63;;;34.30;36.70;;;;;;6243504;28;20236;-65
2022/07/21 14:51:17;;;;;;;4.43;4.03;;;34.30;36.30;;;;;;6254709;28;20224;-66
2022/07/21 14:54:21;;;;;;;4.45;4.13;;;34.30;35.90;;;;;;6244793;28;20311;-67
2022/07/21 14:57:25;;;;;;;4.70;4.18;;;34.20;36.10;;;;;;6240842;28;20239;-66
2022/07/21 15:00:29;;;;;;;4.22;3.83;;;34.20;36.30;;;;;;6253626;28;20238;-66
2022/07/21 15:03:32;;;;;;;4.32;4.03;;;34.20;36.40;;;;;;6257920;28;20291;-67
2022/07/21 15:06:38;;;;;;;4.25;3.95;;;34.20;36.70;;;;;;6255450;28;20239;-67
2022/07/21 15:09:41;;;;;;;3.47;3.15;;;34.20;35.90;;;;;;6261972;28;20238;-66
2022/07/21 15:12:45;;;;;;;4.13;3.60;;;34.30;36.00;;;;;;6256074;28;20234;-67
2022/07/21 15:15:48;;;;;;;3.65;3.38;;;34.40;36.10;;;;;;6271378;28;20417;-67
2022/07/21 15:18:51;;;;;;;3.92;3.63;;;34.40;35.90;;;;;;6266055;28;20570;-66
2022/07/21 15:21:56;;;;;;;4.05;3.65;;;34.50;36.10;;;;;;6273073;28;20237;-65
2022/07/21 15:25:00;;;;;;;4.50;3.95;;;34.50;36.20;;;;;;6275880;28;20262;-66
2022/07/21 15:28:05;;;;;;;5.72;3.72;;;34.50;36.10;;;;;;6274655;28;20238;-66
2022/07/21 15:31:08;;;;;;;4.47;4.00;;;34.50;36.20;;;;;;6275775;28;20285;-66
2022/07/21 15:34:13;;;;;;;3.60;3.30;;;34.30;36.00;;;;;;6267067;28;20215;-67
2022/07/21 15:37:18;;;;;;;4.93;4.28;;;33.90;36.60;;;;;;6252752;28;20219;-67
2022/07/21 15:40:23;;;;;;;3.72;3.42;;;33.70;36.90;;;;;;6252265;28;20246;-66
2022/07/21 15:43:26;;;;;;;4.70;3.88;;;33.50;37.10;;;;;;6252987;28;20200;-67
2022/07/21 15:46:29;;;;;;;3.83;3.53;;;33.50;37.60;;;;;;6252945;28;20228;-66
2022/07/21 15:49:33;;;;;;;4.90;4.40;;;33.50;37.80;;;;;;6251832;28;20650;-68
2022/07/21 15:52:37;;;;;;;5.72;3.78;;;33.40;38.00;;;;;;6251578;28;20584;-69
2022/07/21 15:55:41;;;;;;;6.20;4.05;;;33.30;38.60;;;;;;6252340;28;20554;-68
2022/07/21 16:02:14;;;;;;;4.40;4.00;;;33.20;38.70;;;;;;6250551;28;20239;-67
2022/07/21 16:05:21;;;;;;;6.38;4.40;;;33.00;38.50;;;;;;6250316;28;20237;-67
2022/07/21 16:08:27;;;;;;;5.40;4.90;;;33.00;38.60;;;;;;6250360;28;20239;-67
2022/07/21 16:11:31;;;;;;;4.07;3.75;;;33.00;38.90;;;;;;6250244;28;20682;-66
2022/07/21 16:14:34;;;;;;;6.18;4.15;;;33.00;38.90;;;;;;6245919;28;20238;-67